sensor_id;sensor_type;location;lat;lon;timestamp;temperature;humidity
17307;DHT22;8771;48.048;7.682;2022-08-21T00:04:59;18.30;65.50
17307;DHT22;8771;48.048;7.682;2022-08-21T00:10:04;18.30;65.50
17307;DHT22;8771;48.048;7.682;2022-08-21T00:15:08;18.30;65.50
17307;DHT22;8771;48.048;7.682;2022-08-21T00:20:12;18.30;65.50
17307;DHT22;8771;48.048;7.682;2022-08-21T00:25:17;18.30;65.60
17307;DHT22;8771;48.048;7.682;2022-08-21T00:30:21;18.30;65.50
17307;DHT22;8771;48.048;7.682;2022-08-21T00:35:26;18.30;65.50
17307;DHT22;8771;48.048;7.682;2022-08-21T00:40:33;18.20;65.60
17307;DHT22;8771;48.048;7.682;2022-08-21T00:45:36;18.10;65.70
17307;DHT22;8771;48.048;7.682;2022-08-21T00:50:42;18.10;65.80
17307;DHT22;8771;48.048;7.682;2022-08-21T00:55:46;18.10;65.90
17307;DHT22;8771;48.048;7.682;2022-08-21T01:00:49;18.10;65.80
17307;DHT22;8771;48.048;7.682;2022-08-21T01:05:52;18.00;65.80
17307;DHT22;8771;48.048;7.682;2022-08-21T01:10:56;18.00;65.90
17307;DHT22;8771;48.048;7.682;2022-08-21T01:16:00;17.90;66.00
17307;DHT22;8771;48.048;7.682;2022-08-21T01:21:08;17.90;66.00
17307;DHT22;8771;48.048;7.682;2022-08-21T01:26:11;17.90;66.70
17307;DHT22;8771;48.048;7.682;2022-08-21T01:31:15;17.90;65.90
17307;DHT22;8771;48.048;7.682;2022-08-21T01:36:20;17.90;66.00
17307;DHT22;8771;48.048;7.682;2022-08-21T01:41:23;17.90;66.00
17307;DHT22;8771;48.048;7.682;2022-08-21T01:46:25;17.90;66.00
17307;DHT22;8771;48.048;7.682;2022-08-21T01:51:28;17.80;66.10
17307;DHT22;8771;48.048;7.682;2022-08-21T01:56:36;17.70;66.30
17307;DHT22;8771;48.048;7.682;2022-08-21T02:01:39;17.60;66.30
17307;DHT22;8771;48.048;7.682;2022-08-21T02:06:42;17.60;66.30
17307;DHT22;8771;48.048;7.682;2022-08-21T02:11:45;17.60;66.30
17307;DHT22;8771;48.048;7.682;2022-08-21T02:16:47;17.60;66.30
17307;DHT22;8771;48.048;7.682;2022-08-21T02:21:50;17.50;66.30
17307;DHT22;8771;48.048;7.682;2022-08-21T02:26:52;17.50;66.40
17307;DHT22;8771;48.048;7.682;2022-08-21T02:31:54;17.50;66.40
17307;DHT22;8771;48.048;7.682;2022-08-21T02:36:58;17.40;66.40
17307;DHT22;8771;48.048;7.682;2022-08-21T02:41:59;17.40;66.50
17307;DHT22;8771;48.048;7.682;2022-08-21T02:47:02;17.30;66.50
17307;DHT22;8771;48.048;7.682;2022-08-21T02:52:05;17.30;66.60
17307;DHT22;8771;48.048;7.682;2022-08-21T02:57:07;17.20;66.50
17307;DHT22;8771;48.048;7.682;2022-08-21T03:02:10;17.20;66.50
17307;DHT22;8771;48.048;7.682;2022-08-21T03:07:13;17.20;66.50
17307;DHT22;8771;48.048;7.682;2022-08-21T03:12:15;17.10;67.30
17307;DHT22;8771;48.048;7.682;2022-08-21T03:17:17;17.00;66.60
17307;DHT22;8771;48.048;7.682;2022-08-21T03:22:21;17.00;66.70
17307;DHT22;8771;48.048;7.682;2022-08-21T03:27:23;17.00;66.70
17307;DHT22;8771;48.048;7.682;2022-08-21T03:32:27;17.00;66.70
17307;DHT22;8771;48.048;7.682;2022-08-21T03:37:31;16.90;66.70
17307;DHT22;8771;48.048;7.682;2022-08-21T03:42:33;16.90;66.80
17307;DHT22;8771;48.048;7.682;2022-08-21T03:47:36;16.80;66.80
17307;DHT22;8771;48.048;7.682;2022-08-21T03:52:39;16.80;66.90
17307;DHT22;8771;48.048;7.682;2022-08-21T03:57:41;16.80;67.00
17307;DHT22;8771;48.048;7.682;2022-08-21T04:02:44;16.70;67.00
17307;DHT22;8771;48.048;7.682;2022-08-21T04:07:48;16.70;67.00
17307;DHT22;8771;48.048;7.682;2022-08-21T04:12:50;16.60;67.00
17307;DHT22;8771;48.048;7.682;2022-08-21T04:17:52;16.60;67.00
17307;DHT22;8771;48.048;7.682;2022-08-21T04:22:56;16.50;67.00
17307;DHT22;8771;48.048;7.682;2022-08-21T04:27:58;16.50;67.10
17307;DHT22;8771;48.048;7.682;2022-08-21T04:33:02;16.40;67.20
17307;DHT22;8771;48.048;7.682;2022-08-21T04:38:06;16.30;67.40
17307;DHT22;8771;48.048;7.682;2022-08-21T04:43:09;16.20;67.50
17307;DHT22;8771;48.048;7.682;2022-08-21T04:48:13;16.20;67.50
17307;DHT22;8771;48.048;7.682;2022-08-21T04:53:20;16.20;67.40
17307;DHT22;8771;48.048;7.682;2022-08-21T04:58:23;16.20;67.30
17307;DHT22;8771;48.048;7.682;2022-08-21T05:03:27;16.20;67.30
17307;DHT22;8771;48.048;7.682;2022-08-21T05:08:33;16.20;67.30
17307;DHT22;8771;48.048;7.682;2022-08-21T05:13:36;16.20;67.30
17307;DHT22;8771;48.048;7.682;2022-08-21T05:18:38;16.10;67.50
17307;DHT22;8771;48.048;7.682;2022-08-21T05:23:41;16.10;67.50
17307;DHT22;8771;48.048;7.682;2022-08-21T05:28:44;16.20;67.40
17307;DHT22;8771;48.048;7.682;2022-08-21T05:33:46;16.20;67.20
17307;DHT22;8771;48.048;7.682;2022-08-21T05:38:49;16.30;67.20
17307;DHT22;8771;48.048;7.682;2022-08-21T05:43:51;16.40;67.10
17307;DHT22;8771;48.048;7.682;2022-08-21T05:48:53;16.40;66.90
17307;DHT22;8771;48.048;7.682;2022-08-21T05:53:57;16.50;66.80
17307;DHT22;8771;48.048;7.682;2022-08-21T05:58:59;16.60;66.80
17307;DHT22;8771;48.048;7.682;2022-08-21T06:04:04;16.80;66.70
17307;DHT22;8771;48.048;7.682;2022-08-21T06:09:08;17.10;66.30
17307;DHT22;8771;48.048;7.682;2022-08-21T06:14:13;17.40;65.80
17307;DHT22;8771;48.048;7.682;2022-08-21T06:19:15;17.80;65.40
17307;DHT22;8771;48.048;7.682;2022-08-21T06:24:19;18.10;64.90
17307;DHT22;8771;48.048;7.682;2022-08-21T06:29:21;18.50;64.70
17307;DHT22;8771;48.048;7.682;2022-08-21T06:34:23;18.90;64.20
17307;DHT22;8771;48.048;7.682;2022-08-21T06:39:27;19.20;63.80
17307;DHT22;8771;48.048;7.682;2022-08-21T06:44:29;19.60;64.30
17307;DHT22;8771;48.048;7.682;2022-08-21T06:49:32;20.00;63.20
17307;DHT22;8771;48.048;7.682;2022-08-21T06:54:35;20.30;63.00
17307;DHT22;8771;48.048;7.682;2022-08-21T06:59:38;20.60;62.70
17307;DHT22;8771;48.048;7.682;2022-08-21T07:04:40;20.90;62.40
17307;DHT22;8771;48.048;7.682;2022-08-21T07:09:43;21.10;62.20
17307;DHT22;8771;48.048;7.682;2022-08-21T07:14:45;21.30;62.30
17307;DHT22;8771;48.048;7.682;2022-08-21T07:19:47;21.40;62.40
17307;DHT22;8771;48.048;7.682;2022-08-21T07:24:51;21.50;62.40
17307;DHT22;8771;48.048;7.682;2022-08-21T07:29:53;21.80;62.30
17307;DHT22;8771;48.048;7.682;2022-08-21T07:34:55;22.00;62.10
17307;DHT22;8771;48.048;7.682;2022-08-21T07:39:58;22.10;62.00
17307;DHT22;8771;48.048;7.682;2022-08-21T07:45:00;22.30;61.90
17307;DHT22;8771;48.048;7.682;2022-08-21T07:50:04;22.50;61.80
17307;DHT22;8771;48.048;7.682;2022-08-21T07:55:09;22.60;61.90
17307;DHT22;8771;48.048;7.682;2022-08-21T08:00:14;22.80;61.70
17307;DHT22;8771;48.048;7.682;2022-08-21T08:05:19;22.80;61.60
17307;DHT22;8771;48.048;7.682;2022-08-21T08:10:25;22.80;61.80
17307;DHT22;8771;48.048;7.682;2022-08-21T08:15:27;23.00;61.80
17307;DHT22;8771;48.048;7.682;2022-08-21T08:20:29;23.30;61.60
17307;DHT22;8771;48.048;7.682;2022-08-21T08:25:38;23.40;61.30
17307;DHT22;8771;48.048;7.682;2022-08-21T08:30:40;23.60;61.10
17307;DHT22;8771;48.048;7.682;2022-08-21T08:35:45;23.80;61.00
17307;DHT22;8771;48.048;7.682;2022-08-21T08:40:54;24.10;60.90
17307;DHT22;8771;48.048;7.682;2022-08-21T08:46:03;24.30;60.70
17307;DHT22;8771;48.048;7.682;2022-08-21T08:51:11;24.50;60.60
17307;DHT22;8771;48.048;7.682;2022-08-21T08:56:21;24.60;60.40
17307;DHT22;8771;48.048;7.682;2022-08-21T09:01:26;24.70;60.40
17307;DHT22;8771;48.048;7.682;2022-08-21T09:06:36;24.80;60.50
17307;DHT22;8771;48.048;7.682;2022-08-21T09:11:47;25.00;60.30
17307;DHT22;8771;48.048;7.682;2022-08-21T09:17:10;25.30;60.10
17307;DHT22;8771;48.048;7.682;2022-08-21T09:22:22;25.50;59.90
17307;DHT22;8771;48.048;7.682;2022-08-21T09:27:29;25.70;59.80
17307;DHT22;8771;48.048;7.682;2022-08-21T09:32:34;26.00;59.60
17307;DHT22;8771;48.048;7.682;2022-08-21T09:37:47;26.10;59.50
17307;DHT22;8771;48.048;7.682;2022-08-21T09:42:56;26.00;59.80
17307;DHT22;8771;48.048;7.682;2022-08-21T09:48:09;26.00;59.80
17307;DHT22;8771;48.048;7.682;2022-08-21T09:53:19;26.00;59.80
17307;DHT22;8771;48.048;7.682;2022-08-21T09:58:32;26.20;59.80
17307;DHT22;8771;48.048;7.682;2022-08-21T10:03:34;26.30;59.70
17307;DHT22;8771;48.048;7.682;2022-08-21T10:08:39;26.50;59.60
17307;DHT22;8771;48.048;7.682;2022-08-21T10:13:50;26.80;59.30
17307;DHT22;8771;48.048;7.682;2022-08-21T10:19:02;27.00;59.10
17307;DHT22;8771;48.048;7.682;2022-08-21T10:24:10;27.20;59.00
17307;DHT22;8771;48.048;7.682;2022-08-21T10:29:23;27.40;58.80
17307;DHT22;8771;48.048;7.682;2022-08-21T10:34:38;27.60;58.70
17307;DHT22;8771;48.048;7.682;2022-08-21T10:39:47;27.90;58.50
17307;DHT22;8771;48.048;7.682;2022-08-21T10:45:02;28.10;58.20
17307;DHT22;8771;48.048;7.682;2022-08-21T10:50:12;28.20;58.20
17307;DHT22;8771;48.048;7.682;2022-08-21T10:55:22;28.20;58.20
17307;DHT22;8771;48.048;7.682;2022-08-21T11:00:30;28.10;58.20
17307;DHT22;8771;48.048;7.682;2022-08-21T11:05:40;28.20;58.40
17307;DHT22;8771;48.048;7.682;2022-08-21T11:10:47;28.30;58.20
17307;DHT22;8771;48.048;7.682;2022-08-21T11:15:59;28.20;58.30
17307;DHT22;8771;48.048;7.682;2022-08-21T11:21:14;28.00;58.50
17307;DHT22;8771;48.048;7.682;2022-08-21T11:26:21;27.90;59.30
17307;DHT22;8771;48.048;7.682;2022-08-21T11:31:37;28.10;58.50
17307;DHT22;8771;48.048;7.682;2022-08-21T11:36:49;28.40;58.20
17307;DHT22;8771;48.048;7.682;2022-08-21T11:42:01;28.70;58.00
17307;DHT22;8771;48.048;7.682;2022-08-21T11:47:12;28.80;57.80
17307;DHT22;8771;48.048;7.682;2022-08-21T11:52:20;29.00;57.70
17307;DHT22;8771;48.048;7.682;2022-08-21T11:57:25;29.10;57.40
17307;DHT22;8771;48.048;7.682;2022-08-21T12:02:33;29.20;57.40
17307;DHT22;8771;48.048;7.682;2022-08-21T12:07:37;29.10;57.50
17307;DHT22;8771;48.048;7.682;2022-08-21T12:12:43;29.10;57.40
17307;DHT22;8771;48.048;7.682;2022-08-21T12:17:56;29.20;57.40
17307;DHT22;8771;48.048;7.682;2022-08-21T12:23:05;29.40;57.30
17307;DHT22;8771;48.048;7.682;2022-08-21T12:28:10;29.60;57.20
17307;DHT22;8771;48.048;7.682;2022-08-21T12:33:25;29.70;57.10
17307;DHT22;8771;48.048;7.682;2022-08-21T12:38:34;29.80;57.00
17307;DHT22;8771;48.048;7.682;2022-08-21T12:43:45;29.80;56.80
17307;DHT22;8771;48.048;7.682;2022-08-21T12:48:54;29.90;57.40
17307;DHT22;8771;48.048;7.682;2022-08-21T12:53:59;30.00;56.70
17307;DHT22;8771;48.048;7.682;2022-08-21T12:59:05;30.00;56.70
17307;DHT22;8771;48.048;7.682;2022-08-21T13:04:11;30.00;56.70
17307;DHT22;8771;48.048;7.682;2022-08-21T13:09:16;29.80;56.80
17307;DHT22;8771;48.048;7.682;2022-08-21T13:14:33;29.70;56.90
17307;DHT22;8771;48.048;7.682;2022-08-21T13:19:38;29.70;56.80
17307;DHT22;8771;48.048;7.682;2022-08-21T13:24:40;29.80;56.70
17307;DHT22;8771;48.048;7.682;2022-08-21T13:29:42;29.90;56.50
17307;DHT22;8771;48.048;7.682;2022-08-21T13:34:48;30.00;56.40
17307;DHT22;8771;48.048;7.682;2022-08-21T13:39:51;30.30;56.10
17307;DHT22;8771;48.048;7.682;2022-08-21T13:44:54;30.40;55.90
17307;DHT22;8771;48.048;7.682;2022-08-21T13:49:57;30.60;55.70
17307;DHT22;8771;48.048;7.682;2022-08-21T13:55:07;30.70;55.70
17307;DHT22;8771;48.048;7.682;2022-08-21T14:00:15;30.80;55.60
17307;DHT22;8771;48.048;7.682;2022-08-21T14:05:24;30.80;55.60
17307;DHT22;8771;48.048;7.682;2022-08-21T14:10:27;30.70;55.70
17307;DHT22;8771;48.048;7.682;2022-08-21T14:15:33;30.60;55.80
17307;DHT22;8771;48.048;7.682;2022-08-21T14:20:39;30.60;55.80
17307;DHT22;8771;48.048;7.682;2022-08-21T14:25:43;30.50;55.80
17307;DHT22;8771;48.048;7.682;2022-08-21T14:30:48;30.20;56.10
17307;DHT22;8771;48.048;7.682;2022-08-21T14:35:52;30.00;56.30
17307;DHT22;8771;48.048;7.682;2022-08-21T14:40:56;30.00;56.30
17307;DHT22;8771;48.048;7.682;2022-08-21T14:46:00;29.90;56.20
17307;DHT22;8771;48.048;7.682;2022-08-21T14:51:04;29.70;56.00
17307;DHT22;8771;48.048;7.682;2022-08-21T14:56:07;29.60;56.00
17307;DHT22;8771;48.048;7.682;2022-08-21T15:01:11;29.50;56.00
17307;DHT22;8771;48.048;7.682;2022-08-21T15:06:16;29.50;56.40
17307;DHT22;8771;48.048;7.682;2022-08-21T15:11:22;29.50;55.60
17307;DHT22;8771;48.048;7.682;2022-08-21T15:16:27;29.40;55.60
17307;DHT22;8771;48.048;7.682;2022-08-21T15:21:31;29.40;55.50
17307;DHT22;8771;48.048;7.682;2022-08-21T15:26:34;29.30;55.50
17307;DHT22;8771;48.048;7.682;2022-08-21T15:31:50;29.30;55.40
17307;DHT22;8771;48.048;7.682;2022-08-21T15:36:57;29.50;55.40
17307;DHT22;8771;48.048;7.682;2022-08-21T15:42:00;29.60;55.20
17307;DHT22;8771;48.048;7.682;2022-08-21T15:47:03;29.60;54.90
17307;DHT22;8771;48.048;7.682;2022-08-21T15:52:06;29.60;54.80
17307;DHT22;8771;48.048;7.682;2022-08-21T15:57:10;29.60;54.80
17307;DHT22;8771;48.048;7.682;2022-08-21T16:02:15;29.50;54.90
17307;DHT22;8771;48.048;7.682;2022-08-21T16:07:20;29.60;55.00
17307;DHT22;8771;48.048;7.682;2022-08-21T16:12:25;29.50;54.90
17307;DHT22;8771;48.048;7.682;2022-08-21T16:17:34;29.60;54.90
17307;DHT22;8771;48.048;7.682;2022-08-21T16:22:40;29.60;54.70
17307;DHT22;8771;48.048;7.682;2022-08-21T16:27:45;29.50;54.80
17307;DHT22;8771;48.048;7.682;2022-08-21T16:32:48;29.30;54.90
17307;DHT22;8771;48.048;7.682;2022-08-21T16:37:55;29.20;55.00
17307;DHT22;8771;48.048;7.682;2022-08-21T16:42:57;29.10;55.00
17307;DHT22;8771;48.048;7.682;2022-08-21T16:47:59;28.90;55.00
17307;DHT22;8771;48.048;7.682;2022-08-21T16:53:05;28.90;55.00
17307;DHT22;8771;48.048;7.682;2022-08-21T16:58:10;28.80;55.00
17307;DHT22;8771;48.048;7.682;2022-08-21T17:03:18;28.60;55.20
17307;DHT22;8771;48.048;7.682;2022-08-21T17:08:23;28.30;55.30
17307;DHT22;8771;48.048;7.682;2022-08-21T17:13:25;28.20;55.50
17307;DHT22;8771;48.048;7.682;2022-08-21T17:18:27;28.00;55.60
17307;DHT22;8771;48.048;7.682;2022-08-21T17:23:31;27.90;55.60
17307;DHT22;8771;48.048;7.682;2022-08-21T17:28:36;27.70;55.60
17307;DHT22;8771;48.048;7.682;2022-08-21T17:33:42;27.60;55.50
17307;DHT22;8771;48.048;7.682;2022-08-21T17:38:51;27.50;55.60
17307;DHT22;8771;48.048;7.682;2022-08-21T17:43:54;27.40;55.60
17307;DHT22;8771;48.048;7.682;2022-08-21T17:48:56;27.30;55.70
17307;DHT22;8771;48.048;7.682;2022-08-21T17:53:59;27.10;55.70
17307;DHT22;8771;48.048;7.682;2022-08-21T17:59:03;27.00;55.90
17307;DHT22;8771;48.048;7.682;2022-08-21T18:04:06;26.80;55.90
17307;DHT22;8771;48.048;7.682;2022-08-21T18:09:09;26.60;56.10
17307;DHT22;8771;48.048;7.682;2022-08-21T18:14:12;26.40;56.20
17307;DHT22;8771;48.048;7.682;2022-08-21T18:19:15;26.20;56.30
17307;DHT22;8771;48.048;7.682;2022-08-21T18:24:22;26.10;56.30
17307;DHT22;8771;48.048;7.682;2022-08-21T18:29:24;25.90;56.40
17307;DHT22;8771;48.048;7.682;2022-08-21T18:34:29;25.70;56.50
17307;DHT22;8771;48.048;7.682;2022-08-21T18:39:35;25.50;56.70
17307;DHT22;8771;48.048;7.682;2022-08-21T18:44:38;25.20;56.80
17307;DHT22;8771;48.048;7.682;2022-08-21T18:49:41;25.00;57.20
17307;DHT22;8771;48.048;7.682;2022-08-21T18:54:44;24.70;57.10
17307;DHT22;8771;48.048;7.682;2022-08-21T18:59:46;24.50;57.30
17307;DHT22;8771;48.048;7.682;2022-08-21T19:04:48;24.40;57.40
17307;DHT22;8771;48.048;7.682;2022-08-21T19:09:52;24.10;57.40
17307;DHT22;8771;48.048;7.682;2022-08-21T19:14:54;23.90;57.60
17307;DHT22;8771;48.048;7.682;2022-08-21T19:20:01;23.70;57.70
17307;DHT22;8771;48.048;7.682;2022-08-21T19:25:07;23.50;57.80
17307;DHT22;8771;48.048;7.682;2022-08-21T19:30:10;23.30;58.00
17307;DHT22;8771;48.048;7.682;2022-08-21T19:35:12;23.10;58.10
17307;DHT22;8771;48.048;7.682;2022-08-21T19:40:18;22.90;58.20
17307;DHT22;8771;48.048;7.682;2022-08-21T19:45:20;22.70;58.30
17307;DHT22;8771;48.048;7.682;2022-08-21T19:50:22;22.60;58.40
17307;DHT22;8771;48.048;7.682;2022-08-21T19:55:26;22.50;58.40
17307;DHT22;8771;48.048;7.682;2022-08-21T20:00:28;22.30;58.40
17307;DHT22;8771;48.048;7.682;2022-08-21T20:05:30;22.20;58.50
17307;DHT22;8771;48.048;7.682;2022-08-21T20:10:34;22.10;58.50
17307;DHT22;8771;48.048;7.682;2022-08-21T20:15:36;22.00;58.40
17307;DHT22;8771;48.048;7.682;2022-08-21T20:20:39;22.00;58.50
17307;DHT22;8771;48.048;7.682;2022-08-21T20:25:42;21.80;58.40
17307;DHT22;8771;48.048;7.682;2022-08-21T20:30:45;21.80;58.50
17307;DHT22;8771;48.048;7.682;2022-08-21T20:35:47;21.70;58.50
17307;DHT22;8771;48.048;7.682;2022-08-21T20:40:53;21.60;58.60
17307;DHT22;8771;48.048;7.682;2022-08-21T20:45:55;21.50;58.70
17307;DHT22;8771;48.048;7.682;2022-08-21T20:51:04;21.40;58.60
17307;DHT22;8771;48.048;7.682;2022-08-21T20:56:12;21.40;58.60
17307;DHT22;8771;48.048;7.682;2022-08-21T21:01:15;21.30;58.60
17307;DHT22;8771;48.048;7.682;2022-08-21T21:06:21;21.30;58.60
17307;DHT22;8771;48.048;7.682;2022-08-21T21:11:32;21.20;58.60
17307;DHT22;8771;48.048;7.682;2022-08-21T21:16:39;21.10;58.70
17307;DHT22;8771;48.048;7.682;2022-08-21T21:21:45;21.00;58.80
17307;DHT22;8771;48.048;7.682;2022-08-21T21:26:54;20.90;58.90
17307;DHT22;8771;48.048;7.682;2022-08-21T21:31:58;20.80;59.00
17307;DHT22;8771;48.048;7.682;2022-08-21T21:37:04;20.80;59.00
17307;DHT22;8771;48.048;7.682;2022-08-21T21:42:13;20.90;59.00
17307;DHT22;8771;48.048;7.682;2022-08-21T21:47:24;20.90;58.90
17307;DHT22;8771;48.048;7.682;2022-08-21T21:52:47;20.80;59.00
17307;DHT22;8771;48.048;7.682;2022-08-21T21:58:06;20.70;59.00
17307;DHT22;8771;48.048;7.682;2022-08-21T22:03:14;20.70;59.00
17307;DHT22;8771;48.048;7.682;2022-08-21T22:08:28;20.60;59.10
17307;DHT22;8771;48.048;7.682;2022-08-21T22:13:41;20.60;59.20
17307;DHT22;8771;48.048;7.682;2022-08-21T22:18:50;20.50;59.20
17307;DHT22;8771;48.048;7.682;2022-08-21T22:23:59;20.50;59.10
17307;DHT22;8771;48.048;7.682;2022-08-21T22:29:09;20.60;59.10
17307;DHT22;8771;48.048;7.682;2022-08-21T22:34:14;20.60;59.00
17307;DHT22;8771;48.048;7.682;2022-08-21T22:39:27;20.70;59.00
17307;DHT22;8771;48.048;7.682;2022-08-21T22:44:31;20.70;59.00
17307;DHT22;8771;48.048;7.682;2022-08-21T22:49:35;20.70;58.90
17307;DHT22;8771;48.048;7.682;2022-08-21T22:54:41;20.70;58.90
17307;DHT22;8771;48.048;7.682;2022-08-21T22:59:54;20.80;58.90
17307;DHT22;8771;48.048;7.682;2022-08-21T23:04:58;20.80;58.90
17307;DHT22;8771;48.048;7.682;2022-08-21T23:10:06;20.80;58.80
17307;DHT22;8771;48.048;7.682;2022-08-21T23:15:12;20.80;59.00
17307;DHT22;8771;48.048;7.682;2022-08-21T23:20:18;20.70;59.00
17307;DHT22;8771;48.048;7.682;2022-08-21T23:31:08;20.50;59.30
17307;DHT22;8771;48.048;7.682;2022-08-21T23:36:18;20.50;59.30
17307;DHT22;8771;48.048;7.682;2022-08-21T23:41:46;20.40;59.30
17307;DHT22;8771;48.048;7.682;2022-08-21T23:47:08;20.40;59.30
17307;DHT22;8771;48.048;7.682;2022-08-21T23:52:18;20.40;59.30
17307;DHT22;8771;48.048;7.682;2022-08-21T23:57:31;20.40;59.40
